Margate, South Africa
Current Conditions -  °F | °C
As of 8:00 PM on Sunday 23 Nov 2014 (Local Time) from FALE Reporting Station
Few Clouds Few Clouds  
Wind Chill: 73°   Ceiling: Unl
Heat Index: 73°   Visibility: 6mi
Dew Point: 66°   Wind: 12mph
Humidity: 78%   Direction: 230°SW
Pressure: 29.85"   Gusts: NA
Location:  30.85°S, 30.38°E
Report Text: FALE 231800Z 23010KT 9999 FEW012 FEW026 FEW040CB 23/19 Q1011 TEMPO 5000 -TSRA
Loading
Personal Weather Stations






























Interactive Weather Map New forecast layout! Learn more

10-Day Weather Forecast

Advertisements
Track Severe Weather on mobile